Weather History for Dunkirk, NY

Change the Weather History Date:

Saturday, September 21, 2013

  Actual Average Record
Temperature  
Mean Temperature 65 °F -  
Max Temperature 73 °F 70 °F 89 °F (1931)
Min Temperature 57 °F 53 °F 35 °F (1973)
Growing Degree Days 15 (Base 50)    
Moisture  
Dew Point 60 °F    
Average Humidity 90    
Maximum Humidity 100    
Minimum Humidity 67    
Precipitation  
Precipitation 2.69 in - - ()
Sea Level Pressure  
Sea Level Pressure 29.71 in    
Wind  
Wind Speed 9 mph (WSW)    
Max Wind Speed 22 mph    
Max Gust Speed 33 mph    
Visibility 5 miles    
Events Fog , Rain    
Averages and records for this station are not official NWS values.
T = Trace of Precipitation, MM = Missing Value Source: NWS Daily Summary

Daily Weather History Graph

Daily Weather History Graph

Search for Another Location

Airport:

Trip Planner

Search our weather history database for the weather conditions in past years. The results will help you decide how hot, cold, wet, or windy it might be!

Date:

Astronomy

Sep. 21, 2013 Rise Set
Actual Time 7:03 AM EDT 7:15 PM EDT
Civil Twilight 6:35 AM EDT 7:43 PM EDT
Nautical Twilight 6:02 AM EDT 8:16 PM EDT
Astronomical Twilight 5:28 AM EDT 8:50 PM EDT
Moon 8:21 PM EDT (9/21) 9:24 AM EDT (9/21)
Length of Visible Light 13h 08m
Length of Day
12h 12m
Waning Gibbous, 94% of the Moon is Illuminated
Sep 21
Waning Gibbous
Sep 26
Last Quarter
Oct 4
New
Oct 11
First Quarter
Oct 18
Full

Hourly Weather History & Observations

Time (EDT) Temp. Dew Point Humidity Pressure Visibility Wind Dir Wind Speed Gust Speed Precip Events Conditions
12:53 AM 73.0 °F 64.0 °F 73% 29.75 in 10.0 mi SSW 12.7 mph 23.0 mph N/A   Mostly Cloudy
1:14 AM 71.6 °F 66.2 °F 83% 29.77 in 10.0 mi WSW 12.7 mph 21.9 mph N/A   Overcast
1:53 AM 71.1 °F 64.9 °F 81% 29.75 in 10.0 mi SW 9.2 mph - N/A   Overcast
2:53 AM 70.0 °F 66.0 °F 87% 29.73 in 6.0 mi SSW 12.7 mph - 0.05 in Rain Light Rain
3:53 AM 69.1 °F 64.9 °F 87% 29.71 in 4.0 mi SSW 9.2 mph - 0.08 in Rain Rain
4:25 AM 66.2 °F 66.2 °F 100% 29.72 in 1.8 mi WSW 6.9 mph - 0.14 in Rain Heavy Rain
4:31 AM 68.0 °F 66.2 °F 94% 29.72 in 3.0 mi SW 6.9 mph - 0.15 in Rain Rain
4:53 AM 68.0 °F 66.0 °F 93% 29.70 in 5.0 mi South 10.4 mph - 0.17 in Rain Light Rain
5:32 AM 68.0 °F 66.2 °F 94% 29.71 in 1.8 mi West 8.1 mph - 0.10 in Rain Heavy Rain
5:39 AM 68.0 °F 66.2 °F 94% 29.71 in 1.8 mi SW 5.8 mph - 0.15 in Rain Rain
5:45 AM 68.0 °F 66.2 °F 94% 29.70 in 3.0 mi West 5.8 mph - 0.17 in Rain Rain
5:53 AM 68.0 °F 66.0 °F 93% 29.70 in 6.0 mi WSW 3.5 mph - 0.17 in Rain Light Rain
6:39 AM 68.0 °F 66.2 °F 94% 29.69 in 2.5 mi Calm Calm - 0.09 in Rain Rain
6:48 AM 68.0 °F 66.2 °F 94% 29.69 in 1.8 mi SSW 9.2 mph - 0.16 in Rain Rain
6:53 AM 68.0 °F 66.0 °F 93% 29.69 in 1.8 mi SW 4.6 mph - 0.20 in Rain Heavy Rain
7:07 AM 66.2 °F 64.4 °F 94% 29.69 in 2.5 mi SW 4.6 mph - 0.08 in Rain Heavy Rain
7:14 AM 66.2 °F 66.2 °F 100% 29.69 in 3.0 mi WSW 5.8 mph - 0.10 in Rain Rain
7:29 AM 66.2 °F 66.2 °F 100% 29.69 in 2.5 mi WNW 9.2 mph - 0.16 in Rain Heavy Rain
7:45 AM 62.6 °F 60.8 °F 94% 29.69 in 4.0 mi NNW 6.9 mph 26.5 mph 0.23 in Rain Rain
7:53 AM 62.1 °F 61.0 °F 96% 29.68 in 4.0 mi NNW 6.9 mph - 0.26 in Rain Rain
8:10 AM 60.8 °F 59.0 °F 94% 29.69 in 2.5 mi NW 6.9 mph - 0.07 in Rain Rain
8:21 AM 60.8 °F 59.0 °F 94% 29.71 in 1.0 mi Variable 6.9 mph - 0.25 in Rain Heavy Rain
8:32 AM 60.8 °F 59.0 °F 94% 29.69 in 2.0 mi Variable 6.9 mph - 0.29 in Rain Rain
8:41 AM 60.8 °F 59.0 °F 94% 29.69 in 3.0 mi NNE 6.9 mph - 0.34 in Rain Heavy Rain
8:44 AM 60.8 °F 59.0 °F 94% 29.69 in 1.8 mi NNE 6.9 mph - 0.38 in Rain Heavy Rain
8:53 AM 61.0 °F 60.1 °F 97% 29.73 in 1.0 mi West 9.2 mph - 0.50 in Rain Heavy Rain
9:00 AM 60.8 °F 60.8 °F 100% 29.74 in 0.5 mi WSW 4.6 mph - 0.18 in Fog , Rain Heavy Rain
9:12 AM 60.8 °F 60.8 °F 100% 29.72 in 1.0 mi WNW 6.9 mph - 0.27 in Rain Heavy Rain
9:17 AM 60.8 °F 60.8 °F 100% 29.73 in 1.5 mi Variable 3.5 mph - 0.30 in Rain Heavy Rain
9:22 AM 60.8 °F 60.8 °F 100% 29.73 in 2.0 mi Calm Calm - 0.31 in Rain Rain
9:28 AM 60.8 °F 60.8 °F 100% 29.72 in 3.0 mi Calm Calm - 0.32 in Rain Rain
9:53 AM 61.0 °F 60.1 °F 97% 29.70 in 4.0 mi Variable 4.6 mph - 0.39 in Rain Rain
10:46 AM 60.8 °F 59.0 °F 94% 29.72 in 2.5 mi SSW 8.1 mph - 0.11 in Rain Rain
10:53 AM 61.0 °F 59.0 °F 93% 29.71 in 1.5 mi WNW 5.8 mph - 0.16 in Rain Heavy Rain
11:08 AM 60.8 °F 59.0 °F 94% 29.72 in 2.5 mi South 6.9 mph - 0.06 in Rain Heavy Rain
11:17 AM 60.8 °F 59.0 °F 94% 29.73 in 2.0 mi South 6.9 mph - 0.11 in Rain Heavy Rain
11:53 AM 61.0 °F 59.0 °F 93% 29.71 in 2.0 mi SSE 3.5 mph - 0.24 in Rain Heavy Rain
12:08 PM 60.8 °F 59.0 °F 94% 29.72 in 3.0 mi South 5.8 mph - 0.04 in Rain Rain
12:19 PM 60.8 °F 59.0 °F 94% 29.71 in 2.5 mi SSW 5.8 mph - 0.08 in Rain Rain
12:48 PM 60.8 °F 59.0 °F 94% 29.72 in 3.0 mi South 5.8 mph - 0.17 in Rain Rain
12:53 PM 61.0 °F 59.0 °F 93% 29.71 in 4.0 mi South 5.8 mph - 0.18 in Rain Rain
1:53 PM 61.0 °F 59.0 °F 93% 29.68 in 5.0 mi South 5.8 mph - 0.09 in Rain Light Rain
2:53 PM 61.0 °F 57.9 °F 90% 29.67 in 6.0 mi SSE 5.8 mph - 0.10 in Rain Light Rain
3:53 PM 61.0 °F 57.9 °F 90% 29.65 in 5.0 mi SE 11.5 mph 21.9 mph 0.06 in Rain Rain
4:53 PM 61.0 °F 57.9 °F 90% 29.65 in 10.0 mi South 9.2 mph - 0.04 in   Mostly Cloudy
5:53 PM 63.0 °F 59.0 °F 87% 29.64 in 10.0 mi South 17.3 mph 24.2 mph N/A   Clear
6:22 PM 62.6 °F 57.2 °F 82% 29.66 in 10.0 mi SSW 12.7 mph 27.6 mph N/A   Mostly Cloudy
6:53 PM 59.0 °F 55.0 °F 87% 29.69 in 10.0 mi WNW 21.9 mph 33.4 mph N/A   Mostly Cloudy
6:58 PM 59.0 °F 55.4 °F 88% 29.70 in 10.0 mi WNW 19.6 mph 31.1 mph N/A   Overcast
7:19 PM 59.0 °F 53.6 °F 82% 29.70 in 10.0 mi WNW 20.7 mph 31.1 mph N/A   Overcast
7:53 PM 59.0 °F 53.1 °F 81% 29.72 in 10.0 mi WNW 17.3 mph 26.5 mph N/A   Overcast
8:53 PM 59.0 °F 51.1 °F 75% 29.75 in 10.0 mi WNW 12.7 mph - N/A   Overcast
9:02 PM 59.0 °F 50.0 °F 72% 29.76 in 10.0 mi West 12.7 mph - N/A   Overcast
9:53 PM 57.9 °F 48.0 °F 70% 29.77 in 10.0 mi WNW 11.5 mph - N/A   Overcast
10:53 PM 57.9 °F 46.9 °F 67% 29.79 in 10.0 mi WNW 15.0 mph 20.7 mph N/A   Overcast
11:53 PM 57.0 °F 46.0 °F 67% 29.79 in 10.0 mi NW 10.4 mph - N/A   Overcast